createdAt,value
2023-03-29T00:00:14.765Z,2.58
2023-03-29T00:05:09.016Z,3.88
2023-03-29T00:10:02.490Z,3.55
2023-03-29T00:14:55.350Z,3.20
2023-03-29T00:19:48.982Z,3.53
2023-03-29T00:24:41.958Z,2.67
2023-03-29T00:29:35.444Z,6.55
2023-03-29T00:34:31.183Z,4.68
2023-03-29T00:39:25.930Z,3.63
2023-03-29T00:44:59.535Z,2.75
2023-03-29T00:49:54.114Z,3.60
2023-03-29T00:54:50.548Z,3.47
2023-03-29T01:00:05.176Z,2.63
2023-03-29T01:05:14.542Z,2.03
2023-03-29T01:10:34.918Z,2.33
2023-03-29T01:15:47.039Z,1.75
2023-03-29T01:21:18.484Z,2.92
2023-03-29T01:27:12.593Z,4.22
2023-03-29T01:32:22.416Z,1.67
2023-03-29T01:37:25.090Z,3.63
2023-03-29T01:42:32.639Z,1.90
2023-03-29T01:48:07.800Z,2.85
2023-03-29T01:53:08.610Z,1.83
2023-03-29T01:58:03.835Z,2.08
2023-03-29T02:03:05.111Z,1.88
2023-03-29T02:08:00.569Z,3.80
2023-03-29T02:12:53.793Z,2.30
2023-03-29T02:17:46.774Z,2.33
2023-03-29T02:23:02.686Z,1.65
2023-03-29T02:27:55.587Z,2.35
2023-03-29T02:33:11.647Z,2.05
2023-03-29T02:38:09.382Z,2.40
2023-03-29T02:43:03.838Z,1.75
2023-03-29T02:48:01.548Z,3.88
2023-03-29T02:53:01.106Z,1.75
2023-03-29T02:57:54.097Z,1.95
2023-03-29T03:02:48.323Z,2.60
2023-03-29T03:07:41.685Z,1.48
2023-03-29T03:12:35.060Z,1.98
2023-03-29T03:17:28.158Z,1.42
2023-03-29T03:22:21.156Z,2.13
2023-03-29T03:27:15.208Z,1.88
2023-03-29T03:32:08.146Z,3.47
2023-03-29T03:37:20.513Z,2.25
2023-03-29T03:42:14.173Z,1.52
2023-03-29T03:47:11.283Z,1.90
2023-03-29T03:52:05.753Z,2.88
2023-03-29T03:56:59.454Z,5.30
2023-03-29T04:06:52.998Z,2.88
2023-03-29T04:12:02.055Z,2.38
2023-03-29T04:16:55.970Z,3.25
2023-03-29T04:22:08.298Z,2.80
2023-03-29T04:27:03.060Z,2.50
2023-03-29T04:31:57.448Z,2.60
2023-03-29T04:37:11.067Z,1.40
2023-03-29T04:42:05.457Z,3.17
2023-03-29T04:46:59.860Z,1.42
2023-03-29T04:52:01.269Z,2.72
2023-03-29T04:56:57.202Z,3.53
2023-03-29T05:02:11.518Z,9.35
2023-03-29T05:07:08.565Z,2.05
2023-03-29T05:12:01.939Z,8.38
2023-03-29T05:17:01.604Z,4.72
2023-03-29T05:21:54.532Z,4.60
2023-03-29T05:26:52.230Z,6.20
2023-03-29T05:31:47.494Z,16.50
2023-03-29T05:36:43.396Z,7.65
2023-03-29T05:41:35.740Z,9.52
2023-03-29T05:46:49.032Z,10.20
2023-03-29T05:51:46.214Z,11.15
2023-03-29T05:56:40.146Z,17.42
2023-03-29T06:01:33.178Z,12.60
2023-03-29T06:06:30.409Z,6.72
2023-03-29T06:11:26.773Z,13.82
2023-03-29T06:16:39.634Z,4.97
2023-03-29T06:21:33.960Z,11.98
2023-03-29T06:26:31.147Z,6.00
2023-03-29T06:31:24.762Z,6.95
2023-03-29T06:36:20.701Z,9.48
2023-03-29T06:41:12.882Z,8.48
2023-03-29T06:46:26.359Z,6.53
2023-03-29T06:51:23.438Z,5.35
2023-03-29T06:56:18.084Z,5.20
2023-03-29T07:01:14.578Z,10.35
2023-03-29T07:06:21.102Z,6.38
2023-03-29T07:11:16.300Z,5.53
2023-03-29T07:16:33.008Z,3.22
2023-03-29T07:21:42.153Z,5.23
2023-03-29T07:26:36.356Z,7.07
2023-03-29T07:31:29.727Z,4.20
2023-03-29T07:36:44.037Z,6.15
2023-03-29T07:41:36.917Z,5.25
2023-03-29T07:46:37.637Z,10.00
2023-03-29T07:51:30.742Z,3.03
2023-03-29T07:56:30.267Z,3.45
2023-03-29T08:01:43.419Z,3.63
2023-03-29T08:06:50.682Z,2.55
2023-03-29T08:11:46.986Z,3.50
2023-03-29T08:16:46.772Z,5.05
2023-03-29T08:21:41.846Z,2.50
2023-03-29T08:26:35.297Z,6.90
2023-03-29T08:31:28.309Z,4.65
2023-03-29T08:36:22.016Z,2.67
2023-03-29T08:42:06.927Z,1.55
2023-03-29T08:47:13.293Z,4.05
2023-03-29T08:52:36.778Z,2.05
2023-03-29T08:57:53.202Z,3.22
2023-03-29T09:02:58.167Z,1.80
2023-03-29T09:07:53.010Z,1.85
2023-03-29T09:13:01.774Z,3.25
2023-03-29T09:18:03.969Z,3.15
2023-03-29T09:23:03.566Z,1.80
2023-03-29T09:28:19.817Z,3.08
2023-03-29T09:33:31.244Z,2.13
2023-03-29T09:38:40.950Z,2.70
2023-03-29T09:43:38.863Z,2.17
2023-03-29T09:48:38.859Z,2.75
2023-03-29T09:53:32.572Z,2.40
2023-03-29T09:58:48.647Z,1.20
2023-03-29T10:03:50.832Z,1.92
2023-03-29T10:08:59.180Z,5.18
2023-03-29T10:14:06.926Z,3.75
2023-03-29T10:18:59.885Z,7.55
2023-03-29T10:23:59.842Z,0.70
2023-03-29T10:28:55.400Z,3.97
2023-03-29T10:33:57.957Z,2.22
2023-03-29T10:38:53.768Z,1.45
2023-03-29T10:43:50.924Z,2.67
2023-03-29T10:48:49.533Z,2.33
2023-03-29T10:53:43.298Z,1.25
2023-03-29T10:58:58.420Z,2.58
2023-03-29T11:04:16.052Z,1.73
2023-03-29T11:09:31.183Z,2.88
2023-03-29T11:14:33.709Z,2.90
2023-03-29T11:19:41.554Z,3.20
2023-03-29T11:25:04.054Z,2.97
2023-03-29T11:30:06.712Z,1.98
2023-03-29T11:35:17.946Z,3.03
2023-03-29T11:40:29.776Z,6.70
2023-03-29T11:45:42.908Z,5.25
2023-03-29T11:50:51.017Z,2.70
2023-03-29T11:55:44.936Z,9.95
2023-03-29T12:00:48.655Z,4.78
2023-03-29T12:05:48.562Z,3.33
2023-03-29T12:10:46.195Z,3.50
2023-03-29T12:15:44.302Z,4.97
2023-03-29T12:20:40.825Z,5.50
2023-03-29T12:25:58.681Z,2.45
2023-03-29T12:31:18.407Z,4.93
2023-03-29T12:36:18.762Z,2.73
2023-03-29T12:41:53.624Z,1.50
2023-03-29T12:47:05.284Z,2.50
2023-03-29T12:52:00.970Z,2.55
2023-03-29T12:56:53.446Z,4.30
2023-03-29T13:02:15.543Z,3.63
2023-03-29T13:07:16.108Z,3.05
2023-03-29T13:12:11.880Z,6.60
2023-03-29T13:17:18.283Z,1.85
2023-03-29T13:23:13.216Z,4.07
2023-03-29T13:28:18.549Z,1.85
2023-03-29T13:33:53.006Z,4.63
2023-03-29T13:38:49.504Z,2.75
2023-03-29T13:43:44.878Z,2.45
2023-03-29T13:48:37.655Z,3.53
2023-03-29T13:53:38.106Z,2.67
2023-03-29T13:58:43.250Z,3.17
2023-03-29T14:03:44.783Z,5.82
2023-03-29T14:08:42.550Z,3.10
2023-03-29T14:13:36.091Z,2.45
2023-03-29T14:18:38.208Z,1.52
2023-03-29T14:23:34.336Z,5.55
2023-03-29T14:28:29.410Z,2.58
2023-03-29T14:33:29.254Z,3.35
2023-03-29T14:38:24.499Z,2.65
2023-03-29T14:43:22.510Z,1.90
2023-03-29T14:48:16.221Z,3.28
2023-03-29T14:53:15.444Z,2.63
2023-03-29T14:58:21.138Z,1.88
2023-03-29T15:03:16.461Z,2.70
2023-03-29T15:08:15.204Z,4.65
2023-03-29T15:13:08.944Z,5.13
2023-03-29T15:18:03.865Z,3.05
2023-03-29T15:23:02.773Z,2.40
2023-03-29T15:28:01.029Z,3.25
2023-03-29T15:32:54.880Z,4.78
2023-03-29T15:37:50.149Z,3.17
2023-03-29T15:42:43.693Z,2.70
2023-03-29T15:47:36.807Z,2.90
2023-03-29T15:52:30.514Z,3.65
2023-03-29T15:57:23.911Z,6.10
2023-03-29T16:02:18.156Z,2.72
2023-03-29T16:07:14.941Z,10.68
2023-03-29T16:12:07.608Z,4.72
2023-03-29T16:17:01.708Z,2.58
2023-03-29T16:21:54.747Z,2.95
2023-03-29T16:26:48.645Z,2.30
2023-03-29T16:31:43.066Z,3.85
2023-03-29T16:36:35.412Z,6.85
2023-03-29T16:41:28.786Z,7.00
2023-03-29T16:46:21.887Z,3.88
2023-03-29T16:51:16.388Z,5.43
2023-03-29T16:56:11.038Z,6.38
2023-03-29T17:01:16.445Z,4.07
2023-03-29T17:06:12.010Z,7.15
2023-03-29T17:11:07.071Z,5.78
2023-03-29T17:16:01.097Z,9.50
2023-03-29T17:20:57.613Z,6.88
2023-03-29T17:25:50.807Z,5.78
2023-03-29T17:30:46.523Z,12.57
2023-03-29T17:35:42.223Z,31.67
2023-03-29T17:40:34.772Z,33.10
2023-03-29T17:45:28.140Z,32.80
2023-03-29T17:50:22.018Z,26.40
2023-03-29T17:55:14.704Z,22.63
2023-03-29T18:00:11.604Z,35.35
2023-03-29T18:05:04.714Z,122.30
2023-03-29T18:09:56.820Z,117.32
2023-03-29T18:14:49.441Z,85.25
2023-03-29T18:19:43.106Z,77.80
2023-03-29T18:24:37.200Z,75.20
2023-03-29T18:29:31.257Z,73.57
2023-03-29T18:34:24.412Z,66.57
2023-03-29T18:39:18.202Z,60.35
2023-03-29T18:44:11.158Z,65.85
2023-03-29T18:49:05.187Z,54.15
2023-03-29T18:53:58.402Z,55.53
2023-03-29T18:58:51.945Z,53.63
2023-03-29T19:03:45.747Z,52.80
2023-03-29T19:08:41.011Z,56.08
2023-03-29T19:13:34.463Z,58.30
2023-03-29T19:18:27.504Z,42.60
2023-03-29T19:23:21.781Z,47.40
2023-03-29T19:28:15.218Z,45.67
2023-03-29T19:33:09.298Z,44.80
2023-03-29T19:38:03.039Z,34.72
2023-03-29T19:43:00.373Z,37.60
2023-03-29T19:48:03.334Z,26.08
2023-03-29T19:52:57.604Z,22.05
2023-03-29T19:57:50.883Z,22.88
2023-03-29T20:02:44.454Z,24.15
2023-03-29T20:07:37.616Z,20.85
2023-03-29T20:12:31.928Z,16.85
2023-03-29T20:17:24.539Z,18.77
2023-03-29T20:22:19.972Z,17.80
2023-03-29T20:27:12.726Z,17.40
2023-03-29T20:32:05.335Z,14.65
2023-03-29T20:37:01.555Z,11.85
2023-03-29T20:41:54.277Z,13.43
2023-03-29T20:46:54.801Z,11.48
2023-03-29T20:51:48.112Z,13.57
2023-03-29T20:56:42.836Z,13.40
2023-03-29T21:01:35.654Z,11.90
2023-03-29T21:06:28.689Z,12.85
2023-03-29T21:11:22.152Z,13.55
2023-03-29T21:16:16.331Z,13.65
2023-03-29T21:21:10.860Z,12.32
2023-03-29T21:26:07.836Z,15.38
2023-03-29T21:31:05.214Z,18.38
2023-03-29T21:35:58.501Z,10.75
2023-03-29T21:40:51.757Z,9.65
2023-03-29T21:45:48.854Z,11.00
2023-03-29T21:50:43.107Z,9.65
2023-03-29T21:55:39.071Z,10.98
2023-03-29T22:00:34.188Z,10.57
2023-03-29T22:05:28.098Z,9.68
2023-03-29T22:10:23.658Z,10.73
2023-03-29T22:15:17.879Z,10.88
2023-03-29T22:20:13.617Z,9.15
2023-03-29T22:25:10.766Z,9.32
2023-03-29T22:30:06.860Z,8.13
2023-03-29T22:34:59.267Z,9.70
2023-03-29T22:39:52.051Z,8.43
2023-03-29T22:44:51.626Z,7.85
2023-03-29T22:49:45.091Z,7.85
2023-03-29T22:54:38.802Z,8.43
2023-03-29T22:59:32.386Z,7.10
2023-03-29T23:04:25.989Z,8.45
2023-03-29T23:09:18.947Z,6.57
2023-03-29T23:14:11.800Z,6.35
2023-03-29T23:19:05.798Z,7.03
2023-03-29T23:23:59.203Z,6.80
2023-03-29T23:28:55.166Z,5.85
2023-03-29T23:33:47.837Z,7.07
2023-03-29T23:38:41.246Z,8.30
2023-03-29T23:43:36.198Z,6.35
2023-03-29T23:48:30.276Z,6.10
2023-03-29T23:53:24.063Z,9.40
2023-03-29T23:58:16.783Z,5.70
